Portada
METAR-TAF:

METAR-TAF

Aeroports :

Rolla National Airport

Rolla, Missouri, Estats Units d'Amèrica

latitud: 38-07-55N, longitud: 091-45-55W, altitud: 350 m

Observació

L'informe es va fer fa 1 hora i 12 minuts, a les 23:53 UTC
Vent 9 kt del Sud
Temperatura 33°C
Humitat 56%
Pressió 1013 hPa
Visibilitat: 16.1 km
Cel clar

METAR: KVIH 242353Z AUTO 19009KT 10SM CLR 33/23 A2990 RMK AO2 SLP112 T03330228 10356 20328 56010

Hora: 20:05 (01:05 UTC)


TAF: manca

Observacions i pronòstics meteorològics de més de 4000 aeroports (METAR i TAF).

Les estacions disponibles són els punts grocs i vermells al mapa.

Posi el ratolí al punt desitjat per veure el nom de l'estació.

Feu clic per veure les observacions i els pronòstics meteorològics.

Per canviar el mapa: feu clic els botons verds amb una creu de color negre per apropar; al botó verd amb un guió per allunyar la imatge; o en les fletxes verdes per a mapes adjacents.


METAR-TAF: